createdAt,value
2023-02-03T00:01:46.824Z,3.03
2023-02-03T00:04:13.481Z,2.96
2023-02-03T00:06:40.565Z,2.97
2023-02-03T00:09:07.242Z,3.02
2023-02-03T00:11:33.825Z,2.93
2023-02-03T00:14:00.316Z,2.96
2023-02-03T00:16:26.985Z,2.97
2023-02-03T00:18:53.594Z,2.96
2023-02-03T00:21:20.174Z,2.99
2023-02-03T00:23:46.718Z,2.96
2023-02-03T00:26:15.855Z,3.00
2023-02-03T00:28:42.953Z,2.97
2023-02-03T00:31:18.252Z,2.99
2023-02-03T00:33:44.997Z,2.97
2023-02-03T00:36:12.317Z,2.99
2023-02-03T00:38:39.195Z,3.06
2023-02-03T00:41:06.739Z,3.05
2023-02-03T00:43:33.511Z,3.09
2023-02-03T00:46:00.221Z,3.03
2023-02-03T00:48:26.865Z,3.07
2023-02-03T00:50:53.400Z,3.09
2023-02-03T00:53:19.896Z,3.08
2023-02-03T00:55:46.407Z,3.04
2023-02-03T00:58:12.982Z,3.02
2023-02-03T01:00:39.818Z,3.04
2023-02-03T01:03:06.551Z,3.07
2023-02-03T01:05:33.069Z,3.09
2023-02-03T01:08:01.370Z,3.07
2023-02-03T01:10:28.897Z,3.10
2023-02-03T01:12:55.748Z,3.05
2023-02-03T01:15:22.404Z,3.07
2023-02-03T01:17:48.951Z,3.10
2023-02-03T01:20:17.124Z,3.14
2023-02-03T01:22:43.589Z,3.19
2023-02-03T01:25:10.160Z,3.16
2023-02-03T01:27:36.729Z,3.21
2023-02-03T01:30:03.659Z,3.23
2023-02-03T01:32:30.176Z,3.20
2023-02-03T01:34:56.682Z,3.20
2023-02-03T01:37:23.202Z,3.22
2023-02-03T01:39:49.727Z,3.23
2023-02-03T01:42:19.393Z,3.22
2023-02-03T01:44:48.362Z,3.20
2023-02-03T01:47:19.911Z,3.23
2023-02-03T01:50:12.600Z,3.29
2023-02-03T01:52:41.912Z,3.31
2023-02-03T01:55:12.317Z,3.25
2023-02-03T01:57:47.585Z,3.24
2023-02-03T02:00:14.732Z,3.23
2023-02-03T02:02:44.327Z,3.20
2023-02-03T02:05:20.357Z,3.17
2023-02-03T02:07:48.303Z,3.19
2023-02-03T02:10:15.044Z,3.15
2023-02-03T02:12:41.624Z,3.18
2023-02-03T02:15:08.986Z,3.20
2023-02-03T02:18:06.261Z,3.15
2023-02-03T02:20:45.065Z,3.16
2023-02-03T02:23:59.860Z,3.14
2023-02-03T02:26:57.077Z,3.17
2023-02-03T02:29:51.417Z,3.14
2023-02-03T02:32:41.345Z,3.16
2023-02-03T02:35:20.016Z,3.14
2023-02-03T02:38:10.811Z,3.16
2023-02-03T02:41:17.416Z,3.21
2023-02-03T02:44:01.726Z,3.17
2023-02-03T02:46:38.014Z,3.17
2023-02-03T02:49:16.516Z,3.24
2023-02-03T02:51:45.321Z,3.20
2023-02-03T02:54:20.301Z,3.24
2023-02-03T02:56:51.557Z,3.24
2023-02-03T02:59:18.110Z,3.28
2023-02-03T03:01:44.831Z,3.26
2023-02-03T03:04:14.820Z,3.28
2023-02-03T03:06:51.863Z,3.29
2023-02-03T03:09:25.972Z,3.22
2023-02-03T03:12:03.216Z,3.25
2023-02-03T03:14:32.035Z,3.25
2023-02-03T03:17:04.960Z,3.24
2023-02-03T03:19:36.891Z,3.23
2023-02-03T03:22:07.607Z,3.26
2023-02-03T03:24:41.905Z,3.26
2023-02-03T03:27:15.279Z,3.32
2023-02-03T03:29:51.923Z,3.30
2023-02-03T03:32:18.615Z,3.27
2023-02-03T03:34:45.363Z,3.29
2023-02-03T03:37:36.197Z,3.35
2023-02-03T03:40:28.278Z,3.28
2023-02-03T03:43:03.557Z,3.27
2023-02-03T03:45:41.108Z,3.27
2023-02-03T03:48:15.117Z,3.32
2023-02-03T03:50:48.538Z,3.30
2023-02-03T03:53:18.377Z,3.34
2023-02-03T03:55:49.700Z,3.29
2023-02-03T03:58:23.018Z,3.32
2023-02-03T04:00:50.771Z,3.36
2023-02-03T04:03:22.106Z,3.40
2023-02-03T04:05:49.086Z,3.42
2023-02-03T04:08:15.609Z,3.38
2023-02-03T04:10:44.205Z,3.39
2023-02-03T04:13:12.461Z,3.39
2023-02-03T04:15:38.961Z,3.36
2023-02-03T04:18:06.108Z,3.39
2023-02-03T04:20:33.099Z,3.46
2023-02-03T04:23:00.025Z,3.55
2023-02-03T04:25:27.027Z,3.52
2023-02-03T04:27:54.534Z,3.46
2023-02-03T04:30:21.440Z,3.48
2023-02-03T04:32:48.448Z,3.53
2023-02-03T04:35:15.352Z,3.52
2023-02-03T04:37:42.392Z,3.48
2023-02-03T04:40:09.939Z,3.48
2023-02-03T04:42:38.782Z,3.50
2023-02-03T04:45:06.433Z,3.57
2023-02-03T04:47:32.979Z,3.59
2023-02-03T04:50:00.218Z,3.55
2023-02-03T04:52:26.844Z,3.54
2023-02-03T04:54:53.305Z,3.58
2023-02-03T04:57:19.858Z,3.57
2023-02-03T04:59:46.344Z,3.59
2023-02-03T05:02:12.849Z,3.53
2023-02-03T05:04:39.359Z,3.49
2023-02-03T05:07:05.911Z,3.53
2023-02-03T05:09:32.409Z,3.55
2023-02-03T05:11:58.923Z,3.62
2023-02-03T05:14:25.412Z,3.62
2023-02-03T05:16:52.075Z,3.62
2023-02-03T05:19:18.842Z,3.57
2023-02-03T05:21:45.360Z,3.59
2023-02-03T05:24:12.018Z,3.59
2023-02-03T05:26:38.595Z,3.69
2023-02-03T05:29:05.267Z,3.61
2023-02-03T05:31:33.645Z,3.69
2023-02-03T05:34:00.278Z,3.63
2023-02-03T05:36:26.785Z,3.66
2023-02-03T05:38:53.252Z,3.79
2023-02-03T05:41:38.172Z,3.74
2023-02-03T05:44:04.786Z,3.75
2023-02-03T05:46:31.284Z,3.76
2023-02-03T05:48:57.836Z,3.74
2023-02-03T05:51:25.066Z,3.78
2023-02-03T05:53:51.664Z,3.72
2023-02-03T05:56:18.177Z,3.76
2023-02-03T05:58:44.660Z,3.78
2023-02-03T06:01:11.911Z,3.75
2023-02-03T06:03:38.659Z,3.76
2023-02-03T06:06:05.244Z,3.73
2023-02-03T06:08:31.786Z,3.74
2023-02-03T06:11:01.125Z,3.73
2023-02-03T06:13:28.383Z,3.73
2023-02-03T06:15:54.927Z,3.76
2023-02-03T06:18:21.486Z,3.74
2023-02-03T06:20:48.060Z,3.79
2023-02-03T06:23:17.111Z,3.77
2023-02-03T06:25:43.736Z,3.90
2023-02-03T06:28:10.453Z,3.87
2023-02-03T06:30:37.136Z,3.88
2023-02-03T06:33:03.735Z,3.89
2023-02-03T06:35:30.427Z,3.86
2023-02-03T06:37:56.937Z,3.83
2023-02-03T06:40:23.425Z,3.83
2023-02-03T06:42:51.166Z,3.88
2023-02-03T06:45:18.256Z,3.88
2023-02-03T06:47:45.925Z,3.85
2023-02-03T06:50:13.680Z,3.81
2023-02-03T06:52:40.403Z,3.79
2023-02-03T06:55:07.272Z,3.80
2023-02-03T06:57:33.733Z,3.81
2023-02-03T07:00:00.172Z,3.82
2023-02-03T07:02:26.661Z,3.91
2023-02-03T07:04:53.123Z,3.90
2023-02-03T07:07:19.456Z,3.90
2023-02-03T07:09:46.019Z,3.92
2023-02-03T07:12:12.403Z,3.91
2023-02-03T07:14:39.471Z,3.94
2023-02-03T07:17:06.996Z,3.96
2023-02-03T07:19:33.577Z,4.02
2023-02-03T07:22:00.336Z,4.09
2023-02-03T07:24:26.979Z,4.10
2023-02-03T07:26:53.671Z,4.25
2023-02-03T07:29:20.191Z,4.23
2023-02-03T07:31:46.797Z,4.22
2023-02-03T07:34:13.533Z,4.27
2023-02-03T07:36:41.390Z,4.24
2023-02-03T07:39:07.888Z,4.27
2023-02-03T07:41:34.404Z,4.31
2023-02-03T07:44:00.857Z,4.32
2023-02-03T07:46:27.405Z,4.36
2023-02-03T07:48:54.077Z,4.40
2023-02-03T07:51:20.650Z,4.42
2023-02-03T07:53:47.185Z,4.45
2023-02-03T07:56:13.907Z,4.54
2023-02-03T07:58:40.469Z,4.54
2023-02-03T08:01:13.489Z,4.56
2023-02-03T08:03:40.817Z,4.54
2023-02-03T08:06:08.223Z,4.56
2023-02-03T08:08:35.241Z,4.58
2023-02-03T08:11:02.079Z,4.59
2023-02-03T08:13:28.590Z,4.59
2023-02-03T08:15:55.142Z,4.60
2023-02-03T08:18:22.450Z,4.57
2023-02-03T08:20:49.055Z,4.57
2023-02-03T08:23:15.455Z,4.58
2023-02-03T08:25:41.904Z,4.58
2023-02-03T08:28:08.507Z,4.68
2023-02-03T08:30:35.265Z,4.69
2023-02-03T08:33:01.836Z,4.72
2023-02-03T08:35:28.304Z,4.73
2023-02-03T08:37:54.765Z,4.83
2023-02-03T08:40:21.281Z,4.87
2023-02-03T08:42:47.836Z,4.79
2023-02-03T08:45:14.336Z,4.82
2023-02-03T08:47:40.907Z,4.80
2023-02-03T08:50:08.812Z,4.82
2023-02-03T08:52:35.448Z,4.86
2023-02-03T08:55:01.967Z,4.93
2023-02-03T08:57:32.473Z,4.88
2023-02-03T08:59:58.964Z,4.90
2023-02-03T09:02:25.508Z,4.93
2023-02-03T09:04:52.123Z,4.95
2023-02-03T09:07:18.892Z,4.94
2023-02-03T09:09:45.592Z,5.08
2023-02-03T09:12:13.111Z,5.18
2023-02-03T09:14:39.916Z,5.15
2023-02-03T09:17:08.347Z,5.15
2023-02-03T09:19:36.528Z,5.19
2023-02-03T09:22:03.764Z,5.16
2023-02-03T09:24:30.746Z,5.22
2023-02-03T09:26:57.540Z,5.18
2023-02-03T09:29:24.263Z,5.15
2023-02-03T09:31:54.205Z,5.17
2023-02-03T09:34:21.666Z,5.21
2023-02-03T09:36:48.365Z,5.25
2023-02-03T09:39:15.364Z,5.28
2023-02-03T09:42:03.182Z,5.26
2023-02-03T09:45:11.044Z,5.33
2023-02-03T09:47:40.870Z,5.32
2023-02-03T09:50:14.120Z,5.29
2023-02-03T09:52:42.026Z,5.31
2023-02-03T09:55:26.696Z,5.30
2023-02-03T09:58:01.810Z,5.36
2023-02-03T10:00:42.448Z,5.38
2023-02-03T10:03:24.473Z,5.41
2023-02-03T10:06:02.979Z,5.36
2023-02-03T10:08:51.204Z,5.36
2023-02-03T10:11:55.989Z,5.29
2023-02-03T10:14:41.040Z,5.38
2023-02-03T10:17:29.095Z,5.45
2023-02-03T10:20:04.018Z,5.51
2023-02-03T10:22:35.024Z,5.56
2023-02-03T10:25:05.688Z,5.52
2023-02-03T10:27:33.725Z,5.44
2023-02-03T10:30:15.103Z,5.47
2023-02-03T10:32:41.664Z,5.49
2023-02-03T10:35:13.116Z,5.45
2023-02-03T10:37:47.888Z,5.52
2023-02-03T10:40:16.937Z,5.55
2023-02-03T10:43:07.518Z,5.52
2023-02-03T10:45:38.145Z,5.50
2023-02-03T10:48:07.232Z,5.49
2023-02-03T10:50:35.076Z,5.52
2023-02-03T10:53:26.817Z,5.56
2023-02-03T10:56:11.945Z,5.56
2023-02-03T10:58:40.401Z,5.69
2023-02-03T11:01:11.504Z,5.63
2023-02-03T11:03:41.105Z,5.68
2023-02-03T11:06:12.318Z,5.66
2023-02-03T11:08:42.371Z,5.71
2023-02-03T11:11:13.144Z,5.72
2023-02-03T11:13:39.727Z,5.69
2023-02-03T11:16:16.385Z,5.71
2023-02-03T11:19:04.527Z,5.69
2023-02-03T11:21:32.947Z,5.63
2023-02-03T11:24:20.872Z,5.62
2023-02-03T11:26:59.437Z,5.71
2023-02-03T11:29:34.669Z,5.69
2023-02-03T11:32:29.625Z,5.76
2023-02-03T11:35:25.452Z,5.78
2023-02-03T11:38:00.815Z,5.88
2023-02-03T11:40:29.583Z,5.90
2023-02-03T11:42:56.208Z,5.80
2023-02-03T11:45:35.680Z,5.78
2023-02-03T11:48:02.112Z,5.86
2023-02-03T11:50:57.532Z,5.87
2023-02-03T11:53:27.061Z,5.94
2023-02-03T11:56:15.165Z,5.97
2023-02-03T11:59:11.973Z,5.96
2023-02-03T12:01:49.991Z,6.01
2023-02-03T12:04:19.588Z,5.99
2023-02-03T12:07:00.981Z,6.04
2023-02-03T12:09:36.992Z,6.07
2023-02-03T12:12:45.195Z,6.08
2023-02-03T12:15:33.616Z,6.11
2023-02-03T12:18:24.403Z,6.14
2023-02-03T12:21:07.858Z,6.24
2023-02-03T12:23:50.009Z,6.26
2023-02-03T12:26:29.059Z,6.29
2023-02-03T12:29:07.617Z,6.33
2023-02-03T12:31:44.379Z,6.45
2023-02-03T12:34:23.173Z,6.50
2023-02-03T12:36:58.579Z,6.46
2023-02-03T12:39:48.101Z,6.50
2023-02-03T12:42:23.990Z,6.56
2023-02-03T12:45:13.610Z,6.55
2023-02-03T12:47:46.067Z,6.60
2023-02-03T12:50:18.653Z,6.58
2023-02-03T12:52:52.985Z,6.64
2023-02-03T12:55:31.733Z,6.53
2023-02-03T12:58:23.298Z,6.54
2023-02-03T13:01:12.585Z,6.54
2023-02-03T13:03:45.771Z,6.60
2023-02-03T13:06:16.665Z,6.56
2023-02-03T13:09:01.542Z,6.48
2023-02-03T13:11:45.867Z,6.54
2023-02-03T13:14:34.744Z,6.52
2023-02-03T13:17:20.400Z,6.50
2023-02-03T13:19:51.443Z,6.47
2023-02-03T13:22:19.367Z,6.45
2023-02-03T13:25:01.517Z,6.43
2023-02-03T13:28:06.935Z,6.45
2023-02-03T13:30:51.972Z,6.44
2023-02-03T13:33:48.038Z,6.42
2023-02-03T13:36:36.402Z,6.37
2023-02-03T13:39:29.166Z,6.40
2023-02-03T13:42:11.070Z,6.37
2023-02-03T13:44:39.821Z,6.38
2023-02-03T13:47:14.223Z,6.42
2023-02-03T13:49:46.303Z,6.40
2023-02-03T13:52:37.387Z,6.40
2023-02-03T13:55:05.472Z,6.43
2023-02-03T13:57:35.559Z,6.38
2023-02-03T14:00:04.416Z,6.36
2023-02-03T14:02:42.980Z,6.39
2023-02-03T14:05:39.965Z,6.41
2023-02-03T14:08:32.507Z,6.42
2023-02-03T14:11:39.928Z,6.40
2023-02-03T14:14:09.598Z,6.34
2023-02-03T14:16:37.324Z,6.41
2023-02-03T14:19:05.379Z,6.40
2023-02-03T14:22:03.628Z,6.38
2023-02-03T14:24:33.401Z,6.38
2023-02-03T14:27:02.370Z,6.41
2023-02-03T14:29:32.484Z,6.40
2023-02-03T14:32:00.830Z,6.31
2023-02-03T14:34:45.779Z,6.42
2023-02-03T14:37:28.841Z,6.36
2023-02-03T14:40:26.262Z,6.35
2023-02-03T14:43:12.311Z,6.28
2023-02-03T14:46:10.127Z,6.24
2023-02-03T14:48:55.440Z,6.26
2023-02-03T14:51:55.786Z,6.24
2023-02-03T14:54:43.885Z,6.26
2023-02-03T14:57:38.868Z,6.24
2023-02-03T15:00:07.329Z,6.22
2023-02-03T15:02:34.711Z,6.22
2023-02-03T15:05:13.588Z,6.21
2023-02-03T15:07:48.729Z,6.25
2023-02-03T15:10:24.162Z,6.22
2023-02-03T15:12:53.143Z,6.23
2023-02-03T15:15:29.117Z,6.20
2023-02-03T15:17:58.243Z,6.25
2023-02-03T15:20:45.375Z,6.21
2023-02-03T15:23:26.338Z,6.15
2023-02-03T15:26:04.096Z,6.16
2023-02-03T15:28:30.851Z,6.14
2023-02-03T15:31:23.693Z,6.17
2023-02-03T15:33:53.020Z,6.21
2023-02-03T15:36:23.514Z,6.15
2023-02-03T15:38:55.831Z,6.17
2023-02-03T15:41:24.499Z,6.21
2023-02-03T15:43:56.817Z,6.18
2023-02-03T15:46:35.139Z,6.18
2023-02-03T15:49:27.957Z,6.16
2023-02-03T15:52:08.691Z,6.17
2023-02-03T15:54:41.424Z,6.18
2023-02-03T15:57:21.191Z,6.22
2023-02-03T16:00:20.212Z,6.17
2023-02-03T16:02:47.060Z,6.15
2023-02-03T16:05:22.239Z,6.20
2023-02-03T16:07:48.954Z,6.16
2023-02-03T16:10:34.418Z,6.14
2023-02-03T16:13:25.977Z,6.15
2023-02-03T16:16:13.300Z,6.07
2023-02-03T16:18:40.390Z,6.01
2023-02-03T16:21:25.121Z,5.91
2023-02-03T16:23:51.660Z,5.84
2023-02-03T16:26:19.470Z,5.75
2023-02-03T16:29:23.203Z,5.72
2023-02-03T16:32:08.621Z,5.69
2023-02-03T16:34:53.864Z,5.60
2023-02-03T16:37:44.892Z,5.52
2023-02-03T16:40:32.718Z,5.46
2023-02-03T16:43:18.045Z,5.44
2023-02-03T16:46:02.933Z,5.53
2023-02-03T16:48:47.744Z,5.57
2023-02-03T16:51:16.727Z,5.57
2023-02-03T16:53:45.343Z,5.57
2023-02-03T16:56:12.531Z,5.57
2023-02-03T16:58:39.461Z,5.63
2023-02-03T17:01:07.663Z,5.63
2023-02-03T17:03:36.058Z,5.64
2023-02-03T17:06:08.784Z,5.66
2023-02-03T17:08:36.198Z,5.70
2023-02-03T17:11:08.700Z,5.72
2023-02-03T17:13:36.880Z,5.71
2023-02-03T17:16:12.119Z,5.70
2023-02-03T17:18:39.287Z,5.70
2023-02-03T17:21:07.958Z,5.69
2023-02-03T17:23:34.500Z,5.69
2023-02-03T17:26:01.144Z,5.67
2023-02-03T17:28:27.700Z,5.66
2023-02-03T17:31:05.123Z,5.61
2023-02-03T17:33:33.415Z,5.60
2023-02-03T17:36:05.598Z,5.56
2023-02-03T17:38:36.759Z,5.57
2023-02-03T17:54:51.040Z,5.50
2023-02-03T17:57:17.556Z,5.45
2023-02-03T17:59:44.044Z,5.46
2023-02-03T18:02:10.672Z,5.42
2023-02-03T18:04:37.209Z,5.43
2023-02-03T18:07:03.828Z,5.44
2023-02-03T18:09:30.560Z,5.46
2023-02-03T18:11:57.132Z,5.47
2023-02-03T18:14:23.631Z,5.46
2023-02-03T18:16:50.154Z,5.44
2023-02-03T18:19:16.715Z,5.44
2023-02-03T18:21:43.946Z,5.45
2023-02-03T18:24:12.619Z,5.49
2023-02-03T18:26:47.695Z,5.45
2023-02-03T18:29:14.317Z,5.43
2023-02-03T18:31:41.028Z,5.47
2023-02-03T18:34:07.635Z,5.45
2023-02-03T18:36:34.361Z,5.41
2023-02-03T18:39:01.059Z,5.43
2023-02-03T18:41:27.801Z,5.43
2023-02-03T18:43:54.546Z,5.47
2023-02-03T18:46:24.117Z,5.53
2023-02-03T18:48:51.203Z,5.46
2023-02-03T18:51:19.463Z,5.50
2023-02-03T18:53:46.860Z,5.45
2023-02-03T18:56:25.091Z,5.46
2023-02-03T18:58:51.751Z,5.48
2023-02-03T19:01:38.711Z,5.50
2023-02-03T19:04:06.317Z,5.50
2023-02-03T19:06:34.664Z,5.50
2023-02-03T19:09:02.265Z,5.50
2023-02-03T19:11:28.860Z,5.55
2023-02-03T19:13:55.449Z,5.56
2023-02-03T19:16:21.949Z,5.52
2023-02-03T19:18:48.876Z,5.52
2023-02-03T19:21:15.676Z,5.46
2023-02-03T19:23:42.921Z,5.39
2023-02-03T19:26:10.146Z,5.40
2023-02-03T19:28:36.946Z,5.24
2023-02-03T19:31:16.456Z,5.28
2023-02-03T19:33:43.318Z,5.24
2023-02-03T19:36:11.273Z,5.25
2023-02-03T19:38:37.868Z,5.21
2023-02-03T19:41:04.940Z,5.19
2023-02-03T19:43:31.530Z,5.15
2023-02-03T19:45:58.795Z,5.14
2023-02-03T19:48:25.338Z,5.15
2023-02-03T19:50:51.875Z,5.13
2023-02-03T19:53:18.806Z,5.12
2023-02-03T19:55:46.443Z,5.10
2023-02-03T19:58:13.955Z,5.05
2023-02-03T20:00:41.549Z,5.11
2023-02-03T20:03:08.141Z,5.15
2023-02-03T20:05:36.095Z,5.13
2023-02-03T20:08:03.049Z,5.04
2023-02-03T20:10:30.026Z,5.03
2023-02-03T20:12:56.650Z,5.00
2023-02-03T20:15:23.213Z,5.01
2023-02-03T20:17:49.755Z,5.01
2023-02-03T20:20:19.138Z,5.03
2023-02-03T20:22:46.902Z,5.04
2023-02-03T20:25:13.468Z,5.06
2023-02-03T20:27:40.198Z,5.10
2023-02-03T20:30:07.452Z,5.02
2023-02-03T20:32:34.534Z,5.00
2023-02-03T20:35:01.345Z,4.97
2023-02-03T20:37:27.901Z,5.03
2023-02-03T20:39:54.459Z,5.00
2023-02-03T20:42:20.971Z,4.98
2023-02-03T20:44:47.525Z,4.95
2023-02-03T20:47:18.507Z,4.94
2023-02-03T20:49:46.113Z,4.93
2023-02-03T20:52:14.207Z,4.90
2023-02-03T20:54:41.162Z,4.89
2023-02-03T20:57:13.726Z,4.84
2023-02-03T20:59:40.303Z,4.80
2023-02-03T21:02:51.219Z,4.84
2023-02-03T21:05:27.410Z,4.84
2023-02-03T21:07:54.683Z,4.83
2023-02-03T21:10:23.605Z,4.77
2023-02-03T21:12:50.288Z,4.78
2023-02-03T21:15:23.744Z,4.80
2023-02-03T21:17:50.240Z,4.77
2023-02-03T21:20:33.032Z,4.74
2023-02-03T21:22:59.758Z,4.75
2023-02-03T21:25:32.986Z,4.73
2023-02-03T21:28:00.648Z,4.72
2023-02-03T21:30:32.427Z,4.73
2023-02-03T21:33:00.010Z,4.73
2023-02-03T21:35:34.644Z,4.71
2023-02-03T21:38:02.730Z,4.73
2023-02-03T21:40:32.851Z,4.71
2023-02-03T21:43:01.365Z,4.70
2023-02-03T21:45:42.296Z,4.63
2023-02-03T21:48:26.816Z,4.61
2023-02-03T21:50:55.218Z,4.64
2023-02-03T21:53:24.009Z,4.64
2023-02-03T21:55:50.559Z,4.63
2023-02-03T21:58:26.408Z,4.68
2023-02-03T22:00:55.711Z,4.65
2023-02-03T22:03:36.645Z,4.61
2023-02-03T22:06:05.870Z,4.60
2023-02-03T22:08:36.221Z,4.54
2023-02-03T22:11:02.680Z,4.54
2023-02-03T22:13:29.553Z,4.51
2023-02-03T22:15:56.598Z,4.53
2023-02-03T22:18:23.641Z,4.54
2023-02-03T22:20:50.722Z,4.50
2023-02-03T22:23:17.218Z,4.54
2023-02-03T22:25:43.778Z,4.52
2023-02-03T22:28:10.375Z,4.54
2023-02-03T22:30:37.106Z,4.54
2023-02-03T22:33:04.025Z,4.49
2023-02-03T22:35:30.560Z,4.56
2023-02-03T22:37:57.235Z,4.50
2023-02-03T22:40:24.064Z,4.52
2023-02-03T22:42:51.118Z,4.54
2023-02-03T22:45:18.751Z,4.50
2023-02-03T22:47:45.511Z,4.53
2023-02-03T22:50:13.721Z,4.55
2023-02-03T22:52:40.368Z,4.52
2023-02-03T22:55:08.789Z,4.54
2023-02-03T22:57:38.145Z,4.52
2023-02-03T23:00:10.980Z,4.46
2023-02-03T23:02:41.005Z,4.47
2023-02-03T23:05:08.779Z,4.40
2023-02-03T23:07:37.050Z,4.39
2023-02-03T23:10:05.233Z,4.35
2023-02-03T23:12:31.803Z,4.32
2023-02-03T23:14:58.432Z,4.31
2023-02-03T23:17:25.149Z,4.27
2023-02-03T23:19:51.668Z,4.20
2023-02-03T23:22:18.290Z,4.22
2023-02-03T23:24:44.848Z,4.20
2023-02-03T23:27:11.479Z,4.19
2023-02-03T23:29:38.324Z,4.23
2023-02-03T23:32:06.235Z,4.23
2023-02-03T23:34:51.497Z,4.22
2023-02-03T23:37:18.500Z,4.26
2023-02-03T23:39:45.168Z,4.28
2023-02-03T23:42:11.645Z,4.30
2023-02-03T23:44:38.144Z,4.35
2023-02-03T23:47:04.677Z,4.35
2023-02-03T23:49:31.474Z,4.32
2023-02-03T23:51:58.638Z,4.33
2023-02-03T23:54:25.556Z,4.35
2023-02-03T23:56:52.776Z,4.38
2023-02-03T23:59:19.874Z,4.39
